createdAt,value
2023-06-06T00:00:12.657Z,2.20
2023-06-06T00:02:42.344Z,2.10
2023-06-06T00:05:09.762Z,2.28
2023-06-06T00:07:36.363Z,1.88
2023-06-06T00:10:06.156Z,2.38
2023-06-06T00:12:33.365Z,2.25
2023-06-06T00:15:04.380Z,2.60
2023-06-06T00:17:31.415Z,2.30
2023-06-06T00:19:59.258Z,2.30
2023-06-06T00:22:26.008Z,2.23
2023-06-06T00:24:55.766Z,1.83
2023-06-06T00:27:22.364Z,2.00
2023-06-06T00:29:49.005Z,1.88
2023-06-06T00:32:15.731Z,2.00
2023-06-06T00:34:42.419Z,2.30
2023-06-06T00:37:09.029Z,2.30
2023-06-06T00:39:35.782Z,2.13
2023-06-06T00:42:02.431Z,1.90
2023-06-06T00:44:29.095Z,2.00
2023-06-06T00:46:55.938Z,1.48
2023-06-06T00:49:23.919Z,1.58
2023-06-06T00:51:50.932Z,2.15
2023-06-06T00:54:19.869Z,2.30
2023-06-06T00:56:48.673Z,1.90
2023-06-06T00:59:17.092Z,1.92
2023-06-06T01:01:44.335Z,2.00
2023-06-06T01:04:11.341Z,2.38
2023-06-06T01:06:38.456Z,2.10
2023-06-06T01:09:07.223Z,2.20
2023-06-06T01:12:11.015Z,2.30
2023-06-06T01:14:46.547Z,2.05
2023-06-06T01:17:14.366Z,2.00
2023-06-06T01:19:42.438Z,2.47
2023-06-06T01:22:14.261Z,1.52
2023-06-06T01:24:45.710Z,1.73
2023-06-06T01:27:12.329Z,1.65
2023-06-06T01:29:38.971Z,2.22
2023-06-06T01:32:37.313Z,1.70
2023-06-06T01:38:00.860Z,2.28
2023-06-06T01:40:31.675Z,2.20
2023-06-06T01:42:58.403Z,1.70
2023-06-06T01:45:29.368Z,1.98
2023-06-06T01:47:56.355Z,2.33
2023-06-06T01:50:23.329Z,2.78
2023-06-06T01:52:53.294Z,2.20
2023-06-06T01:55:20.006Z,2.13
2023-06-06T01:57:46.633Z,1.77
2023-06-06T02:00:13.764Z,1.50
2023-06-06T02:02:41.148Z,2.28
2023-06-06T02:05:08.098Z,1.77
2023-06-06T02:07:36.009Z,2.50
2023-06-06T02:10:03.489Z,2.10
2023-06-06T02:12:30.166Z,2.17
2023-06-06T02:14:57.077Z,2.28
2023-06-06T02:17:26.533Z,1.90
2023-06-06T02:20:00.056Z,1.98
2023-06-06T02:22:26.824Z,1.92
2023-06-06T02:24:54.333Z,1.90
2023-06-06T02:27:22.484Z,2.08
2023-06-06T02:29:49.243Z,2.28
2023-06-06T02:32:16.225Z,1.75
2023-06-06T02:34:43.163Z,1.90
2023-06-06T02:37:09.819Z,2.35
2023-06-06T02:39:37.001Z,1.85
2023-06-06T02:42:07.788Z,2.40
2023-06-06T02:44:35.032Z,2.15
2023-06-06T02:47:01.728Z,2.00
2023-06-06T02:49:28.585Z,2.20
2023-06-06T02:51:56.840Z,2.78
2023-06-06T02:54:23.668Z,2.05
2023-06-06T02:56:50.798Z,1.85
2023-06-06T02:59:17.521Z,1.88
2023-06-06T03:01:45.871Z,2.50
2023-06-06T03:06:43.052Z,1.80
2023-06-06T03:09:10.866Z,1.90
2023-06-06T03:11:37.670Z,2.07
2023-06-06T03:14:04.286Z,2.25
2023-06-06T03:16:31.705Z,2.00
2023-06-06T03:18:58.819Z,2.20
2023-06-06T03:21:25.560Z,2.25
2023-06-06T03:23:52.369Z,2.60
2023-06-06T03:26:20.715Z,1.95
2023-06-06T03:28:47.562Z,2.50
2023-06-06T03:31:15.258Z,2.20
2023-06-06T03:33:42.202Z,2.03
2023-06-06T03:36:09.083Z,1.92
2023-06-06T03:38:36.022Z,1.80
2023-06-06T03:41:03.866Z,1.70
2023-06-06T03:43:31.357Z,2.00
2023-06-06T03:45:58.345Z,1.75
2023-06-06T03:48:25.027Z,2.33
2023-06-06T03:50:51.677Z,1.95
2023-06-06T03:53:18.351Z,1.83
2023-06-06T03:55:45.841Z,1.75
2023-06-06T03:58:15.069Z,1.92
2023-06-06T04:00:41.969Z,1.80
2023-06-06T04:03:08.874Z,2.10
2023-06-06T04:05:36.130Z,1.95
2023-06-06T04:08:03.100Z,2.10
2023-06-06T04:10:29.770Z,1.50
2023-06-06T04:12:56.452Z,2.25
2023-06-06T04:15:23.368Z,1.80
2023-06-06T04:17:49.982Z,2.10
2023-06-06T04:20:16.613Z,2.17
2023-06-06T04:22:44.397Z,1.73
2023-06-06T04:25:13.726Z,2.23
2023-06-06T04:27:45.970Z,2.20
2023-06-06T04:30:23.526Z,2.60
2023-06-06T04:32:52.351Z,2.60
2023-06-06T04:35:19.842Z,2.60
2023-06-06T04:37:49.152Z,1.98
2023-06-06T04:40:16.723Z,1.90
2023-06-06T04:42:43.846Z,2.10
2023-06-06T04:45:11.441Z,2.17
2023-06-06T04:47:41.901Z,2.00
2023-06-06T04:50:09.896Z,2.80
2023-06-06T04:52:37.114Z,2.17
2023-06-06T04:55:04.761Z,2.58
2023-06-06T04:57:31.564Z,2.73
2023-06-06T04:59:58.264Z,2.63
2023-06-06T05:02:28.174Z,2.45
2023-06-06T05:04:57.361Z,3.25
2023-06-06T05:07:25.376Z,3.00
2023-06-06T05:09:56.377Z,2.90
2023-06-06T05:12:23.776Z,2.97
2023-06-06T05:14:51.439Z,2.45
2023-06-06T05:17:19.510Z,2.92
2023-06-06T05:19:46.862Z,3.08
2023-06-06T05:22:17.542Z,3.03
2023-06-06T05:24:44.897Z,3.38
2023-06-06T05:27:12.926Z,3.13
2023-06-06T05:29:39.537Z,3.03
2023-06-06T05:32:07.072Z,3.35
2023-06-06T05:34:34.334Z,2.75
2023-06-06T05:37:02.272Z,3.67
2023-06-06T05:39:29.716Z,3.85
2023-06-06T05:41:56.483Z,4.73
2023-06-06T05:44:24.045Z,5.00
2023-06-06T05:46:56.210Z,4.45
2023-06-06T05:49:24.223Z,5.10
2023-06-06T05:51:51.210Z,4.43
2023-06-06T05:54:18.376Z,5.10
2023-06-06T05:56:45.565Z,4.53
2023-06-06T05:59:12.244Z,5.53
2023-06-06T06:01:41.055Z,5.07
2023-06-06T06:04:09.554Z,5.40
2023-06-06T06:06:38.540Z,5.80
2023-06-06T06:09:06.412Z,5.82
2023-06-06T06:11:33.311Z,5.85
2023-06-06T06:14:00.021Z,6.15
2023-06-06T06:16:27.454Z,5.30
2023-06-06T06:18:54.165Z,5.40
2023-06-06T06:21:22.550Z,6.03
2023-06-06T06:23:52.964Z,6.03
2023-06-06T06:26:19.608Z,4.82
2023-06-06T06:28:46.334Z,4.75
2023-06-06T06:31:13.623Z,5.53
2023-06-06T06:33:40.505Z,5.32
2023-06-06T06:36:07.577Z,5.28
2023-06-06T06:38:34.355Z,5.27
2023-06-06T06:41:01.034Z,5.68
2023-06-06T06:43:27.624Z,5.60
2023-06-06T06:45:54.486Z,5.72
2023-06-06T06:48:21.129Z,5.22
2023-06-06T06:50:47.745Z,6.10
2023-06-06T06:53:14.769Z,5.55
2023-06-06T06:55:42.436Z,5.30
2023-06-06T06:58:09.335Z,5.93
2023-06-06T07:00:36.066Z,6.13
2023-06-06T07:03:06.328Z,6.20
2023-06-06T07:05:33.800Z,6.07
2023-06-06T07:08:01.193Z,5.93
2023-06-06T07:10:30.243Z,5.78
2023-06-06T07:12:57.460Z,5.78
2023-06-06T07:15:25.478Z,5.40
2023-06-06T07:20:22.891Z,7.40
2023-06-06T07:22:51.710Z,5.85
2023-06-06T07:25:18.355Z,5.35
2023-06-06T07:27:44.980Z,4.80
2023-06-06T07:30:15.546Z,3.97
2023-06-06T07:32:48.269Z,4.07
2023-06-06T07:35:17.701Z,4.15
2023-06-06T07:37:44.423Z,4.30
2023-06-06T07:40:12.741Z,3.92
2023-06-06T07:42:42.683Z,4.75
2023-06-06T07:45:10.275Z,4.18
2023-06-06T07:50:04.357Z,4.20
2023-06-06T07:52:34.515Z,4.87
2023-06-06T07:55:02.132Z,4.20
2023-06-06T07:57:29.043Z,4.35
2023-06-06T07:59:55.797Z,4.10
2023-06-06T08:02:22.716Z,3.38
2023-06-06T08:04:49.409Z,4.55
2023-06-06T08:07:16.578Z,3.85
2023-06-06T08:09:44.420Z,3.92
2023-06-06T08:14:39.405Z,3.30
2023-06-06T08:17:06.978Z,3.83
2023-06-06T08:19:34.066Z,3.33
2023-06-06T08:22:02.880Z,3.30
2023-06-06T08:24:30.236Z,3.25
2023-06-06T08:26:57.833Z,3.80
2023-06-06T08:29:24.475Z,3.58
2023-06-06T08:31:51.970Z,3.10
2023-06-06T08:34:18.704Z,3.63
2023-06-06T08:36:45.576Z,4.10
2023-06-06T08:39:12.304Z,3.78
2023-06-06T08:41:49.256Z,3.53
2023-06-06T08:44:15.832Z,4.23
2023-06-06T08:46:43.644Z,3.95
2023-06-06T08:51:38.376Z,4.22
2023-06-06T08:54:05.872Z,3.88
2023-06-06T08:56:32.469Z,4.25
2023-06-06T08:58:59.558Z,4.20
2023-06-06T09:01:27.503Z,3.70
2023-06-06T09:03:54.692Z,3.63
2023-06-06T09:06:22.202Z,3.22
2023-06-06T09:08:51.771Z,3.10
2023-06-06T09:11:19.048Z,2.97
2023-06-06T09:13:46.628Z,4.57
2023-06-06T09:18:42.853Z,4.95
2023-06-06T09:21:10.013Z,5.20
2023-06-06T09:23:37.272Z,4.63
2023-06-06T09:26:04.262Z,4.18
2023-06-06T09:28:41.544Z,3.80
2023-06-06T09:33:55.888Z,5.22
2023-06-06T09:36:24.152Z,4.70
2023-06-06T09:38:55.153Z,5.15
2023-06-06T09:41:22.733Z,5.45
2023-06-06T09:43:49.615Z,5.13
2023-06-06T09:46:18.419Z,4.18
2023-06-06T09:48:59.608Z,4.13
2023-06-06T09:51:26.432Z,4.13
2023-06-06T09:53:53.514Z,3.25
2023-06-06T09:56:24.469Z,4.22
2023-06-06T09:58:57.981Z,4.53
2023-06-06T10:01:34.185Z,4.38
2023-06-06T10:04:01.796Z,4.47
2023-06-06T10:06:35.193Z,3.80
2023-06-06T10:09:08.392Z,4.10
2023-06-06T10:11:36.144Z,4.95
2023-06-06T10:14:04.629Z,5.38
2023-06-06T10:16:32.678Z,4.95
2023-06-06T10:21:28.464Z,4.87
2023-06-06T10:23:56.027Z,4.70
2023-06-06T10:26:27.991Z,5.82
2023-06-06T10:29:04.923Z,6.20
2023-06-06T10:31:41.913Z,5.50
2023-06-06T10:34:14.323Z,5.03
2023-06-06T10:36:44.959Z,5.07
2023-06-06T10:39:32.920Z,5.28
2023-06-06T10:42:08.221Z,4.15
2023-06-06T10:44:38.838Z,4.80
2023-06-06T10:47:32.375Z,4.57
2023-06-06T10:50:17.060Z,5.22
2023-06-06T10:52:51.799Z,5.78
2023-06-06T10:55:45.289Z,5.10
2023-06-06T10:58:40.779Z,4.65
2023-06-06T11:01:07.871Z,4.97
2023-06-06T11:03:37.078Z,5.30
2023-06-06T11:06:15.819Z,4.90
2023-06-06T11:08:46.682Z,4.70
2023-06-06T11:11:30.513Z,4.97
2023-06-06T11:13:58.312Z,5.22
2023-06-06T11:17:01.371Z,5.22
2023-06-06T11:19:32.429Z,4.22
2023-06-06T11:22:00.460Z,4.55
2023-06-06T11:24:33.809Z,4.30
2023-06-06T11:27:01.171Z,4.60
2023-06-06T11:29:28.412Z,5.53
2023-06-06T11:31:55.042Z,4.77
2023-06-06T11:34:25.465Z,5.80
2023-06-06T11:36:53.022Z,4.28
2023-06-06T11:39:21.962Z,3.45
2023-06-06T11:41:51.114Z,4.15
2023-06-06T11:44:19.122Z,3.95
2023-06-06T11:49:12.993Z,4.57
2023-06-06T11:51:39.619Z,5.07
2023-06-06T11:54:12.921Z,5.25
2023-06-06T11:56:40.812Z,5.97
2023-06-06T11:59:09.714Z,4.95
2023-06-06T12:01:36.777Z,6.10
2023-06-06T12:04:07.422Z,5.03
2023-06-06T12:06:34.670Z,6.68
2023-06-06T12:09:02.060Z,4.85
2023-06-06T12:11:31.114Z,5.73
2023-06-06T12:13:58.483Z,6.07
2023-06-06T12:16:28.513Z,4.57
2023-06-06T12:18:58.538Z,5.20
2023-06-06T12:21:25.165Z,5.47
2023-06-06T12:23:52.022Z,4.75
2023-06-06T12:26:19.691Z,4.70
2023-06-06T12:28:59.428Z,4.45
2023-06-06T12:31:35.590Z,4.30
2023-06-06T12:34:03.199Z,4.25
2023-06-06T12:36:29.839Z,4.88
2023-06-06T12:39:04.747Z,4.78
2023-06-06T12:41:42.282Z,3.83
2023-06-06T12:44:13.656Z,3.85
2023-06-06T12:46:41.624Z,4.90
2023-06-06T12:51:40.685Z,3.72
2023-06-06T12:54:07.560Z,4.65
2023-06-06T12:56:34.152Z,3.83
2023-06-06T12:59:01.437Z,4.38
2023-06-06T13:01:29.637Z,4.00
2023-06-06T13:06:23.308Z,4.28
2023-06-06T13:08:50.079Z,4.35
2023-06-06T13:11:16.732Z,3.85
2023-06-06T13:13:43.374Z,3.58
2023-06-06T13:16:10.094Z,3.90
2023-06-06T13:18:38.676Z,3.70
2023-06-06T13:21:05.432Z,4.10
2023-06-06T13:23:34.852Z,5.18
2023-06-06T13:26:01.671Z,5.25
2023-06-06T13:28:28.272Z,4.25
2023-06-06T13:30:54.962Z,3.88
2023-06-06T13:33:21.816Z,4.70
2023-06-06T13:35:49.967Z,3.65
2023-06-06T13:40:44.775Z,4.97
2023-06-06T13:43:13.085Z,5.22
2023-06-06T13:45:41.904Z,4.88
2023-06-06T13:48:08.867Z,4.78
2023-06-06T13:50:36.330Z,4.80
2023-06-06T13:53:04.701Z,4.53
2023-06-06T13:55:32.776Z,3.67
2023-06-06T13:58:04.161Z,3.58
2023-06-06T14:00:35.548Z,4.47
2023-06-06T14:03:02.460Z,3.10
2023-06-06T14:05:29.779Z,4.07
2023-06-06T14:07:56.672Z,4.55
2023-06-06T14:10:23.348Z,3.72
2023-06-06T14:12:50.130Z,4.88
2023-06-06T14:15:17.250Z,3.83
2023-06-06T14:17:43.948Z,4.40
2023-06-06T14:20:13.279Z,5.00
2023-06-06T14:22:44.336Z,3.63
2023-06-06T14:25:11.415Z,4.95
2023-06-06T14:27:39.377Z,4.75
2023-06-06T14:30:07.764Z,4.65
2023-06-06T14:32:35.932Z,4.38
2023-06-06T14:37:31.928Z,3.83
2023-06-06T14:40:00.055Z,4.57
2023-06-06T14:42:27.530Z,3.13
2023-06-06T14:44:56.724Z,2.00
2023-06-06T14:47:23.883Z,1.45
2023-06-06T14:49:50.716Z,1.80
2023-06-06T14:52:17.648Z,1.90
2023-06-06T14:54:44.623Z,1.70
2023-06-06T14:57:12.337Z,1.55
2023-06-06T14:59:40.048Z,2.10
2023-06-06T15:02:07.461Z,2.38
2023-06-06T15:04:36.220Z,2.10
2023-06-06T15:07:05.196Z,1.83
2023-06-06T15:09:32.711Z,2.20
2023-06-06T15:11:59.752Z,1.65
2023-06-06T15:14:27.129Z,2.28
2023-06-06T15:16:58.271Z,1.95
2023-06-06T15:19:25.027Z,2.60
2023-06-06T15:21:51.922Z,3.08
2023-06-06T15:24:25.316Z,2.47
2023-06-06T15:26:58.861Z,2.63
2023-06-06T15:29:25.864Z,1.98
2023-06-06T15:31:54.982Z,2.17
2023-06-06T15:34:22.328Z,2.33
2023-06-06T15:36:49.360Z,2.60
2023-06-06T15:39:16.066Z,2.97
2023-06-06T15:41:42.693Z,2.30
2023-06-06T15:44:11.417Z,2.10
2023-06-06T15:46:40.865Z,1.98
2023-06-06T15:49:08.343Z,2.47
2023-06-06T15:51:39.303Z,2.00
2023-06-06T15:54:06.822Z,3.13
2023-06-06T15:56:33.499Z,2.35
2023-06-06T15:59:01.226Z,2.22
2023-06-06T16:01:28.750Z,2.15
2023-06-06T16:03:55.897Z,2.42
2023-06-06T16:06:25.630Z,2.75
2023-06-06T16:08:52.896Z,2.20
2023-06-06T16:11:20.840Z,2.30
2023-06-06T16:13:47.425Z,3.10
2023-06-06T16:16:15.088Z,2.97
2023-06-06T16:18:41.953Z,3.53
2023-06-06T16:21:09.602Z,2.63
2023-06-06T16:23:36.899Z,2.60
2023-06-06T16:26:03.593Z,2.70
2023-06-06T16:28:30.187Z,2.85
2023-06-06T16:30:57.128Z,2.50
2023-06-06T16:33:23.747Z,2.55
2023-06-06T16:35:50.379Z,3.78
2023-06-06T16:38:16.947Z,2.38
2023-06-06T16:40:43.557Z,2.78
2023-06-06T16:43:10.238Z,2.90
2023-06-06T16:45:37.050Z,2.72
2023-06-06T16:48:07.154Z,2.30
2023-06-06T16:50:34.086Z,2.42
2023-06-06T16:53:00.745Z,2.20
2023-06-06T16:55:27.482Z,2.03
2023-06-06T16:57:54.221Z,2.17
2023-06-06T17:00:21.965Z,1.83
2023-06-06T17:02:49.556Z,1.37
2023-06-06T17:05:17.180Z,1.45
2023-06-06T17:07:43.776Z,1.52
2023-06-06T17:10:13.800Z,1.55
2023-06-06T17:12:40.495Z,2.35
2023-06-06T17:15:07.955Z,2.25
2023-06-06T17:17:34.564Z,1.80
2023-06-06T17:20:01.456Z,1.90
2023-06-06T17:22:28.300Z,1.48
2023-06-06T17:24:57.657Z,1.63
2023-06-06T17:27:24.348Z,1.60
2023-06-06T17:29:50.986Z,1.88
2023-06-06T17:32:17.702Z,1.48
2023-06-06T17:34:44.684Z,1.52
2023-06-06T17:37:11.417Z,1.50
2023-06-06T17:39:38.035Z,1.67
2023-06-06T17:42:05.207Z,2.00
2023-06-06T17:44:31.946Z,1.67
2023-06-06T17:46:58.587Z,1.70
2023-06-06T17:49:25.298Z,1.80
2023-06-06T17:51:51.912Z,1.52
2023-06-06T17:54:18.535Z,1.80
2023-06-06T17:56:45.082Z,1.95
2023-06-06T17:59:12.319Z,1.50
2023-06-06T18:01:38.900Z,2.33
2023-06-06T18:04:06.222Z,2.10
2023-06-06T18:06:33.125Z,1.75
2023-06-06T18:09:00.037Z,1.52
2023-06-06T18:11:27.055Z,1.90
2023-06-06T18:13:53.905Z,1.70
2023-06-06T18:16:20.570Z,1.88
2023-06-06T18:18:48.961Z,2.33
2023-06-06T18:21:17.026Z,2.00
2023-06-06T18:23:43.780Z,1.58
2023-06-06T18:26:11.737Z,2.53
2023-06-06T18:28:38.314Z,2.10
2023-06-06T18:31:04.990Z,3.08
2023-06-06T18:33:31.824Z,2.50
2023-06-06T18:35:58.530Z,1.90
2023-06-06T18:38:25.218Z,2.70
2023-06-06T18:40:51.887Z,2.35
2023-06-06T18:43:19.127Z,2.22
2023-06-06T18:45:49.382Z,1.80
2023-06-06T18:48:16.586Z,3.42
2023-06-06T18:50:46.751Z,2.33
2023-06-06T18:53:13.474Z,2.20
2023-06-06T18:55:41.516Z,2.33
2023-06-06T18:58:08.530Z,2.92
2023-06-06T19:00:35.168Z,2.47
2023-06-06T19:03:01.940Z,1.83
2023-06-06T19:05:28.604Z,1.65
2023-06-06T19:07:55.734Z,2.13
2023-06-06T19:10:22.604Z,1.90
2023-06-06T19:12:49.851Z,2.20
2023-06-06T19:15:16.781Z,1.80
2023-06-06T19:17:43.620Z,2.10
2023-06-06T19:20:11.224Z,2.05
2023-06-06T19:22:37.905Z,2.78
2023-06-06T19:25:05.044Z,2.28
2023-06-06T19:27:31.785Z,2.30
2023-06-06T19:29:58.464Z,2.28
2023-06-06T19:32:25.288Z,1.95
2023-06-06T19:34:52.379Z,2.40
2023-06-06T19:37:19.026Z,2.05
2023-06-06T19:39:48.230Z,2.20
2023-06-06T19:42:15.764Z,2.08
2023-06-06T19:44:42.545Z,1.77
2023-06-06T19:47:09.204Z,2.35
2023-06-06T19:49:36.097Z,1.83
2023-06-06T19:52:03.678Z,2.38
2023-06-06T19:54:30.365Z,2.33
2023-06-06T19:56:57.154Z,1.90
2023-06-06T19:59:23.795Z,2.47
2023-06-06T20:01:50.679Z,3.03
2023-06-06T20:04:17.470Z,2.65
2023-06-06T20:06:44.301Z,2.70
2023-06-06T20:09:10.923Z,2.83
2023-06-06T20:11:37.504Z,2.47
2023-06-06T20:14:04.217Z,2.15
2023-06-06T20:16:30.885Z,1.98
2023-06-06T20:18:57.572Z,2.45
2023-06-06T20:21:24.316Z,2.17
2023-06-06T20:23:52.014Z,2.33
2023-06-06T20:26:18.759Z,1.98
2023-06-06T20:28:45.463Z,1.67
2023-06-06T20:31:14.531Z,2.30
2023-06-06T20:33:42.060Z,2.22
2023-06-06T20:36:09.341Z,2.20
2023-06-06T20:38:35.994Z,2.78
2023-06-06T20:41:02.847Z,2.17
2023-06-06T20:43:29.714Z,1.63
2023-06-06T20:45:56.488Z,2.53
2023-06-06T20:48:23.303Z,2.25
2023-06-06T20:50:50.562Z,2.22
2023-06-06T20:53:17.308Z,1.60
2023-06-06T20:55:44.135Z,2.05
2023-06-06T20:58:17.898Z,1.83
2023-06-06T21:00:46.624Z,2.13
2023-06-06T21:03:14.525Z,2.03
2023-06-06T21:05:41.421Z,2.10
2023-06-06T21:08:09.131Z,1.65
2023-06-06T21:10:35.857Z,1.98
2023-06-06T21:13:02.754Z,2.13
2023-06-06T21:15:29.586Z,1.85
2023-06-06T21:17:57.412Z,1.90
2023-06-06T21:20:24.175Z,2.00
2023-06-06T21:22:51.129Z,2.13
2023-06-06T21:25:17.810Z,2.17
2023-06-06T21:27:44.477Z,2.08
2023-06-06T21:30:11.579Z,1.80
2023-06-06T21:32:42.191Z,1.50
2023-06-06T21:35:09.160Z,1.50
2023-06-06T21:37:35.839Z,1.35
2023-06-06T21:40:02.570Z,1.85
2023-06-06T21:42:29.440Z,2.00
2023-06-06T21:44:58.020Z,1.65
2023-06-06T21:47:24.808Z,1.40
2023-06-06T21:49:52.751Z,1.40
2023-06-06T21:52:19.361Z,1.47
2023-06-06T21:54:46.038Z,1.50
2023-06-06T21:57:12.663Z,1.05
2023-06-06T21:59:39.327Z,1.80
2023-06-06T22:02:06.156Z,1.80
2023-06-06T22:04:32.746Z,1.80
2023-06-06T22:07:03.864Z,1.73
2023-06-06T22:09:31.534Z,1.77
2023-06-06T22:11:58.128Z,1.30
2023-06-06T22:14:24.698Z,1.33
2023-06-06T22:16:51.376Z,1.70
2023-06-06T22:19:19.092Z,1.40
2023-06-06T22:21:45.769Z,1.58
2023-06-06T22:24:12.396Z,1.77
2023-06-06T22:26:39.062Z,2.60
2023-06-06T22:29:07.230Z,1.50
2023-06-06T22:31:34.402Z,1.50
2023-06-06T22:34:01.149Z,1.83
2023-06-06T22:36:27.781Z,1.35
2023-06-06T22:38:54.431Z,1.52
2023-06-06T22:41:21.086Z,1.67
2023-06-06T22:43:47.779Z,1.65
2023-06-06T22:46:14.423Z,1.35
2023-06-06T22:48:41.075Z,1.33
2023-06-06T22:51:08.190Z,1.17
2023-06-06T22:53:34.866Z,0.90
2023-06-06T22:56:01.516Z,1.02
2023-06-06T23:04:59.541Z,1.40
2023-06-06T23:07:26.143Z,1.42
2023-06-06T23:09:53.038Z,1.65
2023-06-06T23:12:19.605Z,1.50
2023-06-06T23:14:46.210Z,1.40
2023-06-06T23:17:12.992Z,1.52
2023-06-06T23:19:39.749Z,1.33
2023-06-06T23:22:06.570Z,1.63
2023-06-06T23:24:33.267Z,1.58
2023-06-06T23:26:59.908Z,1.33
2023-06-06T23:29:26.481Z,1.40
2023-06-06T23:31:53.260Z,1.40
2023-06-06T23:34:19.999Z,1.67
2023-06-06T23:36:48.921Z,1.30
2023-06-06T23:39:15.652Z,1.30
2023-06-06T23:41:42.514Z,1.77
2023-06-06T23:44:09.078Z,1.58
2023-06-06T23:46:35.725Z,1.77
2023-06-06T23:49:02.407Z,1.77
2023-06-06T23:51:29.483Z,1.25
2023-06-06T23:53:56.195Z,1.08
2023-06-06T23:56:22.877Z,1.10
2023-06-06T23:58:49.575Z,1.25
